Time;durP1;ratioP1;P1;durP2;ratioP2;P2;SDS_P1;SDS_P2;PMS_P1;PMS_P2;Temp;Humidity;BMP_temperature;BMP_pressure;BME280_temperature;BME280_humidity;BME280_pressure;Samples;Min_cycle;Max_cycle;Signal;HPM_P1;HPM_P2
2023/06/18 00:05:31;;;;;;;9.10;8.20;;;;;;;16.52;63.07;97909.91;5032292;28;20235;-78
2023/06/18 00:07:58;;;;;;;9.53;8.07;;;;;;;16.48;63.20;97903.22;5033265;28;20671;-78
2023/06/18 00:10:25;;;;;;;8.33;7.53;;;;;;;16.45;63.72;97908.84;5033131;28;20209;-77
2023/06/18 00:12:52;;;;;;;8.87;7.93;;;;;;;16.38;64.39;97905.06;5033034;28;20208;-78
2023/06/18 00:15:18;;;;;;;8.77;7.87;;;;;;;16.33;64.66;97909.97;5033262;28;20233;-78
2023/06/18 00:17:45;;;;;;;8.57;7.67;;;;;;;16.32;64.46;97907.44;5033146;28;20296;-78
2023/06/18 00:20:12;;;;;;;8.90;7.93;;;;;;;16.24;65.12;97905.53;5032766;28;20701;-78
2023/06/18 00:22:39;;;;;;;9.63;8.33;;;;;;;16.19;65.91;97907.78;5033003;28;20221;-77
2023/06/18 00:25:06;;;;;;;9.37;8.47;;;;;;;16.10;66.17;97908.66;5033237;28;20575;-78
2023/06/18 00:27:34;;;;;;;9.13;8.23;;;;;;;16.02;66.19;97911.22;5033046;28;20205;-79
2023/06/18 00:30:01;;;;;;;8.67;7.77;;;;;;;16.01;65.94;97905.19;5032672;28;20648;-79
2023/06/18 00:32:28;;;;;;;10.90;9.57;;;;;;;15.94;66.45;97910.25;5032896;28;20235;-77
2023/06/18 00:34:54;;;;;;;10.50;8.80;;;;;;;15.89;66.56;97907.16;5032368;28;20310;-79
2023/06/18 00:37:21;;;;;;;10.53;9.43;;;;;;;15.83;66.83;97899.75;5032681;28;20204;-77
2023/06/18 00:39:48;;;;;;;12.17;10.47;;;;;;;15.76;67.21;97901.31;5032524;28;20707;-79
2023/06/18 00:42:15;;;;;;;10.63;9.53;;;;;;;15.73;67.41;97900.75;5032782;28;20216;-78
2023/06/18 00:44:43;;;;;;;10.07;9.07;;;;;;;15.72;67.40;97907.94;5032453;28;20233;-78
2023/06/18 00:47:11;;;;;;;10.23;9.23;;;;;;;15.65;67.59;97896.16;5032437;28;20671;-78
2023/06/18 00:49:38;;;;;;;10.13;9.13;;;;;;;15.69;68.01;97912.69;5032428;28;20244;-78
2023/06/18 00:52:05;;;;;;;10.53;9.43;;;;;;;15.73;67.25;97903.44;5032619;28;20213;-79
2023/06/18 00:54:34;;;;;;;9.07;8.17;;;;;;;15.79;65.82;97892.19;5032326;28;20236;-78
2023/06/18 00:57:01;;;;;;;8.80;7.90;;;;;;;15.80;64.93;97888.53;5032419;28;20290;-79
2023/06/18 00:59:29;;;;;;;10.53;8.63;;;;;;;15.74;67.47;97903.28;5032078;28;20259;-77
2023/06/18 01:01:58;;;;;;;9.37;8.47;;;;;;;15.69;67.91;97896.69;5032117;28;20254;-77
2023/06/18 01:04:28;;;;;;;10.03;8.93;;;;;;;15.60;68.40;97892.25;5032361;28;20333;-77
2023/06/18 01:06:55;;;;;;;10.07;8.77;;;;;;;15.58;68.37;97894.22;5032358;28;20213;-78
2023/06/18 01:09:23;;;;;;;9.33;8.43;;;;;;;15.54;68.59;97892.81;5031862;28;20208;-78
2023/06/18 01:11:51;;;;;;;8.83;7.93;;;;;;;15.50;68.79;97892.25;5032148;28;20213;-77
2023/06/18 01:14:19;;;;;;;9.33;8.13;;;;;;;15.51;69.05;97893.09;5031936;28;20225;-78
2023/06/18 01:16:46;;;;;;;9.73;8.73;;;;;;;15.52;69.66;97897.44;5031956;28;20213;-78
2023/06/18 01:19:33;;;;;;;8.87;7.97;;;;;;;15.51;70.23;97893.09;5031667;28;20216;-78
2023/06/18 01:22:06;;;;;;;9.07;8.17;;;;;;;15.51;71.14;97893.09;5032031;28;20343;-78
2023/06/18 01:24:38;;;;;;;9.93;8.33;;;;;;;15.50;71.79;97896.72;5031862;28;20256;-78
2023/06/18 01:27:06;;;;;;;9.43;8.47;;;;;;;15.50;71.64;97896.72;5031790;28;20692;-76
2023/06/18 01:29:34;;;;;;;9.70;8.70;;;;;;;15.54;72.16;97888.34;5031559;28;20671;-76
2023/06/18 01:32:00;;;;;;;10.37;9.00;;;;;;;15.54;72.35;97892.81;5031771;28;20216;-76
2023/06/18 01:34:29;;;;;;;9.00;8.10;;;;;;;15.55;71.96;97887.34;5031472;28;20233;-76
2023/06/18 01:37:05;;;;;;;11.50;8.60;;;;;;;15.56;72.04;97885.50;5031532;28;20581;-76
2023/06/18 01:39:37;;;;;;;10.67;8.97;;;;;;;15.59;72.45;97886.06;5031641;28;20212;-76
2023/06/18 01:42:11;;;;;;;11.33;9.20;;;;;;;15.60;72.66;97886.91;5031732;28;20308;-76
2023/06/18 01:44:39;;;;;;;9.10;8.20;;;;;;;15.62;72.41;97890.25;5031389;28;20278;-76
2023/06/18 01:47:06;;;;;;;8.60;7.73;;;;;;;15.62;72.10;97884.94;5031417;28;20217;-76
2023/06/18 01:49:35;;;;;;;9.83;8.70;;;;;;;15.65;72.39;97890.81;5031137;28;20215;-76
2023/06/18 01:52:04;;;;;;;11.30;9.03;;;;;;;15.62;72.74;97885.78;5031689;28;20259;-76
2023/06/18 01:54:32;;;;;;;10.33;9.17;;;;;;;15.77;71.55;97878.19;5031412;28;20225;-77
2023/06/18 01:56:59;;;;;;;10.47;8.77;;;;;;;15.77;71.60;97883.50;5031490;28;20212;-76
2023/06/18 01:59:26;;;;;;;11.80;8.73;;;;;;;15.77;71.57;97891.50;5031053;28;20216;-77
2023/06/18 02:01:53;;;;;;;9.83;8.60;;;;;;;15.78;71.96;97879.88;5031193;28;20208;-76
2023/06/18 02:04:20;;;;;;;10.03;8.93;;;;;;;15.74;72.38;97873.97;5030935;28;20225;-77
2023/06/18 02:06:47;;;;;;;9.60;8.60;;;;;;;15.71;72.37;97874.25;5031362;28;20205;-77
2023/06/18 02:09:15;;;;;;;9.50;8.60;;;;;;;15.68;72.92;97876.38;5030799;28;20208;-77
2023/06/18 02:11:41;;;;;;;11.43;9.30;;;;;;;15.65;72.60;97879.34;5031208;28;20244;-77
2023/06/18 02:14:07;;;;;;;9.40;8.17;;;;;;;15.60;72.36;97885.09;5031145;28;20232;-76
2023/06/18 02:16:34;;;;;;;9.97;8.53;;;;;;;15.58;72.41;97891.56;5031061;28;20232;-75
2023/06/18 02:19:00;;;;;;;8.87;7.97;;;;;;;15.53;72.77;97891.94;5030940;28;20220;-74
2023/06/18 02:21:28;;;;;;;9.83;8.83;;;;;;;15.57;72.52;97897.88;5031077;28;20211;-75
2023/06/18 02:23:56;;;;;;;9.63;8.60;;;;;;;15.55;72.86;97898.00;5031066;28;20233;-75
2023/06/18 02:26:22;;;;;;;9.60;8.60;;;;;;;15.50;72.66;97886.94;5031154;28;20209;-75
2023/06/18 02:28:49;;;;;;;10.17;8.67;;;;;;;15.43;72.86;97895.63;5031549;28;20215;-77
2023/06/18 02:31:15;;;;;;;9.53;8.27;;;;;;;15.40;72.83;97891.41;5034766;28;20215;-77
2023/06/18 02:33:42;;;;;;;8.57;7.77;;;;;;;15.38;72.55;97892.53;5035173;28;20319;-77
2023/06/18 02:36:10;;;;;;;10.33;8.77;;;;;;;15.34;73.18;97891.16;5035168;28;20235;-77
2023/06/18 02:38:36;;;;;;;9.53;8.53;;;;;;;15.31;73.22;97888.72;5034913;28;20219;-76
2023/06/18 02:41:04;;;;;;;9.37;8.43;;;;;;;15.26;73.61;97889.16;5034809;28;20223;-77
2023/06/18 02:43:32;;;;;;;8.60;7.67;;;;;;;15.24;73.85;97884.94;5034661;28;20681;-77
2023/06/18 02:45:59;;;;;;;10.60;8.37;;;;;;;15.25;73.75;97878.63;5108826;22;20250;-83
2023/06/18 02:48:25;;;;;;;9.77;8.80;;;;;;;15.21;73.49;97878.06;5100642;28;20188;-82
2023/06/18 02:50:52;;;;;;;9.20;8.13;;;;;;;15.22;73.84;97876.28;5100371;28;20191;-81
2023/06/18 02:53:18;;;;;;;9.97;8.97;;;;;;;15.17;74.47;97874.03;5099777;28;20217;-83
2023/06/18 02:55:45;;;;;;;11.60;9.13;;;;;;;15.15;74.99;97880.47;5095113;28;20223;-79
2023/06/18 02:58:27;;;;;;;9.90;8.37;;;;;;;15.10;75.38;97885.38;5092959;28;20208;-81
2023/06/18 03:00:54;;;;;;;9.43;8.43;;;;;;;15.05;75.72;97884.94;5094214;28;20199;-82
2023/06/18 03:03:21;;;;;;;8.90;8.00;;;;;;;15.00;75.54;97888.03;5096321;28;20196;-84
2023/06/18 03:05:48;;;;;;;11.00;8.77;;;;;;;14.99;75.49;97882.84;5096110;28;20303;-83
2023/06/18 03:08:14;;;;;;;9.87;8.33;;;;;;;14.97;75.52;97892.78;5095815;28;20229;-84
2023/06/18 03:10:43;;;;;;;11.30;8.93;;;;;;;14.98;75.41;97887.31;5089308;28;20285;-83
2023/06/18 03:13:09;;;;;;;9.47;8.53;;;;;;;15.03;74.75;97887.75;5083349;28;20216;-84
2023/06/18 03:15:37;;;;;;;10.20;8.70;;;;;;;15.04;74.83;97893.91;5084168;28;20231;-83
2023/06/18 03:18:04;;;;;;;10.83;8.37;;;;;;;15.05;75.00;97895.59;5083570;28;20203;-83
2023/06/18 03:20:30;;;;;;;10.90;7.77;;;;;;;15.07;74.93;97890.97;5086785;28;20196;-83
2023/06/18 03:22:57;;;;;;;10.03;8.40;;;;;;;15.04;75.21;97893.91;5094899;28;20200;-84
2023/06/18 03:25:23;;;;;;;11.70;9.10;;;;;;;15.04;75.28;97894.75;5099711;28;20212;-83
2023/06/18 03:27:51;;;;;;;9.60;8.50;;;;;;;15.05;75.00;97895.59;5099786;28;20195;-83
2023/06/18 03:30:18;;;;;;;8.93;8.03;;;;;;;15.06;74.44;97886.63;5099140;28;20207;-83
2023/06/18 03:32:46;;;;;;;9.13;8.00;;;;;;;15.11;74.29;97889.72;5099635;28;20215;-83
2023/06/18 03:35:12;;;;;;;8.90;8.00;;;;;;;15.15;73.84;97896.44;5099598;28;20215;-83
2023/06/18 03:37:39;;;;;;;10.10;8.33;;;;;;;15.19;74.19;97887.19;5099657;28;20218;-83
2023/06/18 03:40:06;;;;;;;9.47;8.40;;;;;;;15.19;73.80;97903.16;5098648;28;20207;-83
2023/06/18 03:42:33;;;;;;;10.07;8.60;;;;;;;15.22;73.29;97892.25;5099905;28;20184;-83
2023/06/18 03:44:59;;;;;;;8.97;8.07;;;;;;;15.25;73.12;97902.59;5099583;28;20258;-83
2023/06/18 03:47:26;;;;;;;9.00;8.10;;;;;;;15.29;72.50;97896.03;5099738;28;20192;-83
2023/06/18 03:49:54;;;;;;;9.13;8.23;;;;;;;15.33;72.46;97900.13;5097473;28;20202;-83
2023/06/18 03:52:20;;;;;;;9.60;8.37;;;;;;;15.36;72.70;97899.84;5092787;28;20218;-83
2023/06/18 03:54:47;;;;;;;9.13;8.23;;;;;;;15.33;73.34;97900.13;5092388;28;20311;-83
2023/06/18 03:57:13;;;;;;;9.03;8.13;;;;;;;15.35;73.78;97903.47;5092245;28;20227;-83
2023/06/18 03:59:40;;;;;;;9.20;8.30;;;;;;;15.32;73.97;97898.38;5092752;28;20207;-83
2023/06/18 04:02:07;;;;;;;8.77;7.87;;;;;;;15.37;73.77;97909.50;5095883;28;20294;-84
2023/06/18 04:04:33;;;;;;;9.50;8.10;;;;;;;15.34;74.36;97907.13;5086422;28;20234;-84
2023/06/18 04:07:01;;;;;;;9.33;8.23;;;;;;;15.38;74.06;97909.38;5088921;28;20203;-84
2023/06/18 04:09:27;;;;;;;9.40;8.10;;;;;;;15.39;74.60;97910.22;5097976;28;20519;-83
2023/06/18 04:11:54;;;;;;;9.90;7.97;;;;;;;15.40;74.27;97911.91;5098633;28;20207;-83
2023/06/18 04:14:21;;;;;;;9.40;8.50;;;;;;;15.42;75.25;97915.25;5098538;28;20241;-83
2023/06/18 04:16:47;;;;;;;9.37;8.47;;;;;;;15.41;75.48;97910.91;5098688;28;20249;-83
2023/06/18 04:19:14;;;;;;;9.13;7.83;;;;;;;15.36;76.45;97921.13;5087995;28;20207;-83
2023/06/18 04:21:40;;;;;;;9.93;8.93;;;;;;;15.34;77.59;97925.78;5094331;28;20279;-84
2023/06/18 04:24:08;;;;;;;10.17;8.83;;;;;;;15.35;77.39;97930.09;5097162;28;20318;-83
2023/06/18 04:26:35;;;;;;;9.77;8.77;;;;;;;15.37;77.67;97928.13;5096941;28;20252;-84
2023/06/18 04:29:01;;;;;;;9.93;8.93;;;;;;;15.48;77.15;97928.00;5096207;28;20274;-84
2023/06/18 04:31:28;;;;;;;10.27;9.23;;;;;;;15.58;77.55;97926.19;5096098;28;20199;-84
2023/06/18 04:33:54;;;;;;;11.00;9.40;;;;;;;15.63;77.32;97913.28;5095927;28;20218;-83
2023/06/18 04:36:21;;;;;;;9.63;8.63;;;;;;;15.68;78.53;97924.31;5090144;28;20215;-83
2023/06/18 04:38:47;;;;;;;11.60;9.60;;;;;;;15.61;79.25;97924.06;5088446;28;20202;-83
2023/06/18 04:41:15;;;;;;;11.50;9.30;;;;;;;15.60;80.06;97926.88;5093682;28;20270;-84
2023/06/18 04:43:41;;;;;;;10.33;9.23;;;;;;;15.69;79.99;97923.34;5094574;28;20203;-83
2023/06/18 04:46:08;;;;;;;10.90;9.60;;;;;;;15.80;79.04;97921.38;5084249;28;20227;-84
2023/06/18 04:48:35;;;;;;;10.50;9.40;;;;;;;15.87;78.00;97911.81;5094006;28;20212;-84
2023/06/18 04:51:01;;;;;;;10.53;9.40;;;;;;;16.00;76.13;97906.19;5082183;28;20211;-84
2023/06/18 04:53:29;;;;;;;10.63;9.50;;;;;;;16.10;75.23;97902.50;5085213;28;20286;-84
2023/06/18 04:55:55;;;;;;;11.83;9.23;;;;;;;16.16;75.27;97897.41;5090369;28;20693;-84
2023/06/18 04:58:24;;;;;;;10.90;8.87;;;;;;;16.29;75.06;97892.59;5089175;28;20207;-84
2023/06/18 05:00:50;;;;;;;11.13;9.40;;;;;;;16.60;74.79;97895.84;5091866;28;20215;-84
2023/06/18 05:03:17;;;;;;;10.63;9.10;;;;;;;16.97;74.68;97900.09;5092189;28;20207;-84
2023/06/18 05:05:43;;;;;;;10.67;9.57;;;;;;;17.40;74.34;97900.22;5091773;28;20229;-84
2023/06/18 05:08:10;;;;;;;10.90;9.70;;;;;;;17.81;72.82;97891.50;5077945;28;20218;-84
2023/06/18 05:10:36;;;;;;;9.53;8.27;;;;;;;18.10;71.31;97884.00;5072475;28;20770;-84
2023/06/18 05:13:03;;;;;;;9.30;8.30;;;;;;;18.31;70.43;97879.16;5072483;28;20215;-84
2023/06/18 05:15:31;;;;;;;10.27;8.80;;;;;;;18.51;69.85;97879.72;5072600;28;20235;-84
2023/06/18 05:17:57;;;;;;;9.77;8.37;;;;;;;18.63;67.94;97873.94;5073194;28;20674;-84
2023/06/18 05:20:24;;;;;;;9.97;8.87;;;;;;;18.73;68.13;97881.84;5072313;28;20208;-84
2023/06/18 05:22:50;;;;;;;9.13;8.20;;;;;;;18.89;67.63;97879.22;5073367;28;20317;-84
2023/06/18 05:25:17;;;;;;;9.27;8.37;;;;;;;18.99;66.90;97870.03;5071971;28;20230;-84
2023/06/18 05:27:43;;;;;;;9.70;8.70;;;;;;;19.09;65.22;97865.34;5072138;28;20208;-84
2023/06/18 05:30:10;;;;;;;9.60;8.60;;;;;;;19.18;64.23;97864.34;5071853;28;20677;-84
2023/06/18 05:32:39;;;;;;;10.07;8.67;;;;;;;19.29;64.11;97871.25;5072424;28;20294;-84
2023/06/18 05:35:06;;;;;;;8.90;8.00;;;;;;;19.36;65.18;97880.31;5071637;28;20242;-85
2023/06/18 05:37:32;;;;;;;9.03;8.20;;;;;;;19.52;66.03;97883.00;5071872;28;20235;-84
2023/06/18 05:39:59;;;;;;;10.20;8.77;;;;;;;19.69;64.57;97877.47;5071542;28;20222;-84
2023/06/18 05:42:26;;;;;;;9.97;8.77;;;;;;;19.80;62.40;97871.75;5071615;28;20214;-84
2023/06/18 05:44:52;;;;;;;9.43;8.43;;;;;;;19.89;61.99;97872.59;5071594;28;20239;-85
2023/06/18 05:47:19;;;;;;;9.00;8.10;;;;;;;19.99;62.18;97879.44;5071742;28;20207;-84
2023/06/18 05:49:46;;;;;;;8.63;7.83;;;;;;;20.11;63.05;97875.41;5071752;28;20207;-84
2023/06/18 05:52:13;;;;;;;9.77;8.77;;;;;;;20.22;62.23;97880.44;5071786;28;20207;-84
2023/06/18 05:54:40;;;;;;;9.13;8.07;;;;;;;20.39;59.81;97874.00;5071482;28;20377;-84
2023/06/18 05:57:06;;;;;;;8.83;8.00;;;;;;;20.61;58.71;97859.81;5071730;28;20701;-84
2023/06/18 05:59:33;;;;;;;9.00;8.10;;;;;;;20.71;56.75;97846.16;5071329;28;20626;-84
2023/06/18 06:01:59;;;;;;;8.97;8.07;;;;;;;20.80;57.15;97854.00;5072134;28;20212;-85
2023/06/18 06:04:26;;;;;;;8.97;8.10;;;;;;;20.98;57.82;97862.66;5070827;28;20238;-84
2023/06/18 06:06:54;;;;;;;9.10;8.20;;;;;;;21.23;56.29;97853.44;5071547;28;20554;-84
2023/06/18 06:09:20;;;;;;;9.43;8.07;;;;;;;21.51;54.36;97843.81;5071198;28;20207;-84
2023/06/18 06:11:48;;;;;;;8.70;7.87;;;;;;;21.81;53.23;97832.13;5071143;28;20207;-80
2023/06/18 06:14:15;;;;;;;9.03;8.23;;;;;;;22.14;53.35;97849.59;5071082;28;20227;-80
2023/06/18 06:16:42;;;;;;;8.47;7.17;;;;;;;22.58;52.97;97842.41;5070945;28;20321;-79
2023/06/18 06:19:08;;;;;;;8.20;7.40;;;;;;;22.99;51.47;97843.50;5071066;28;20559;-78
2023/06/18 06:21:35;;;;;;;7.97;7.17;;;;;;;23.31;49.88;97823.34;5071140;28;20207;-78
2023/06/18 06:24:02;;;;;;;8.13;7.33;;;;;;;23.67;48.98;97824.09;5071274;28;20223;-78
2023/06/18 06:26:29;;;;;;;7.87;7.17;;;;;;;23.96;48.37;97822.06;5070995;28;20252;-78
2023/06/18 06:28:55;;;;;;;9.33;8.40;;;;;;;24.18;47.27;97812.88;5070824;28;20294;-78
2023/06/18 06:31:22;;;;;;;8.87;7.67;;;;;;;24.35;47.03;97807.97;5070919;28;20313;-80
2023/06/18 06:33:50;;;;;;;8.87;8.00;;;;;;;24.52;46.62;97802.06;5070849;28;20678;-80
2023/06/18 06:36:17;;;;;;;7.87;7.17;;;;;;;24.69;46.90;97811.50;5070872;28;20227;-80
2023/06/18 06:38:43;;;;;;;8.10;7.30;;;;;;;24.77;46.46;97811.34;5071132;28;20226;-80
2023/06/18 06:41:11;;;;;;;8.37;7.57;;;;;;;24.77;46.58;97814.06;5070748;28;20207;-80
2023/06/18 06:43:37;;;;;;;8.15;7.35;;;;;;;24.69;46.27;97810.69;5071106;28;20214;-80
2023/06/18 06:46:04;;;;;;;8.57;7.77;;;;;;;24.75;46.31;97810.69;5070646;28;20214;-80
2023/06/18 06:48:30;;;;;;;9.30;7.27;;;;;;;24.92;46.73;97811.19;5071021;28;20218;-80
2023/06/18 06:50:57;;;;;;;8.03;7.23;;;;;;;25.09;45.84;97810.59;5070261;28;20270;-80
2023/06/18 06:53:23;;;;;;;8.03;7.23;;;;;;;25.11;44.41;97794.19;5070726;28;20208;-80
2023/06/18 06:55:50;;;;;;;8.13;7.43;;;;;;;25.27;44.73;97815.44;5070293;28;20711;-80
2023/06/18 06:58:18;;;;;;;8.17;7.37;;;;;;;25.50;44.98;97827.56;5070862;28;20231;-80
2023/06/18 07:00:44;;;;;;;8.38;7.57;;;;;;;25.61;43.19;97818.81;5070276;28;20877;-80
2023/06/18 07:03:11;;;;;;;8.10;7.30;;;;;;;25.70;43.81;97828.41;5070428;28;20206;-80
2023/06/18 07:05:37;;;;;;;8.30;7.53;;;;;;;25.86;43.88;97824.44;5070591;28;20599;-80
2023/06/18 07:08:05;;;;;;;7.80;7.10;;;;;;;25.88;43.36;97825.06;5070631;28;20204;-80
2023/06/18 07:10:32;;;;;;;8.45;7.57;;;;;;;25.77;43.62;97820.28;5070235;28;20588;-79
2023/06/18 07:12:58;;;;;;;8.73;7.87;;;;;;;25.42;44.28;97825.03;5068512;28;20207;-82
2023/06/18 07:15:26;;;;;;;8.18;7.35;;;;;;;25.05;45.13;97833.69;5071029;28;20247;-78
2023/06/18 07:17:52;;;;;;;8.43;7.43;;;;;;;24.62;45.76;97834.97;5073942;28;20250;-79
2023/06/18 07:20:20;;;;;;;8.40;7.57;;;;;;;24.22;47.11;97845.72;5073499;28;20218;-79
2023/06/18 07:22:46;;;;;;;8.63;7.82;;;;;;;23.97;47.19;97849.91;5072696;28;20230;-80
2023/06/18 07:25:13;;;;;;;8.60;7.78;;;;;;;23.86;47.68;97855.81;5071634;28;20235;-81
2023/06/18 07:27:39;;;;;;;9.67;7.97;;;;;;;23.71;47.82;97853.19;5072015;28;20199;-81
2023/06/18 07:30:07;;;;;;;8.07;7.27;;;;;;;23.63;47.16;97842.53;5071680;28;20276;-81
2023/06/18 07:32:35;;;;;;;8.47;7.33;;;;;;;23.55;48.34;97858.88;5074299;28;20208;-82
2023/06/18 07:35:01;;;;;;;8.20;7.37;;;;;;;23.52;48.63;97856.56;5073734;28;20227;-82
2023/06/18 07:37:28;;;;;;;8.60;7.80;;;;;;;23.54;49.44;97865.28;5071277;28;20250;-82
2023/06/18 07:39:55;;;;;;;8.27;7.40;;;;;;;23.68;48.97;97861.69;5071076;28;20215;-83
2023/06/18 07:42:21;;;;;;;7.60;6.90;;;;;;;23.70;48.47;97859.63;5071628;28;20229;-82
2023/06/18 07:44:48;;;;;;;8.13;7.33;;;;;;;23.70;47.46;97850.69;5073022;28;20239;-83
2023/06/18 07:47:14;;;;;;;8.10;6.70;;;;;;;23.72;47.33;97837.84;5073769;28;20199;-82
2023/06/18 07:49:42;;;;;;;8.00;7.20;;;;;;;23.82;47.92;97852.66;5071548;28;20218;-83
2023/06/18 07:52:09;;;;;;;7.77;7.07;;;;;;;23.86;46.81;97842.31;5070778;28;20207;-82
2023/06/18 07:54:36;;;;;;;8.27;6.80;;;;;;;23.97;44.97;97826.47;5071095;28;20234;-83
2023/06/18 07:57:03;;;;;;;7.67;6.97;;;;;;;24.09;46.47;97841.06;5071173;28;20224;-81
2023/06/18 07:59:29;;;;;;;7.47;6.77;;;;;;;24.20;46.16;97843.22;5073405;28;20204;-82
2023/06/18 08:01:56;;;;;;;7.30;6.60;;;;;;;24.31;45.60;97844.56;5073297;28;20211;-82
2023/06/18 08:04:22;;;;;;;7.27;6.40;;;;;;;24.44;45.87;97842.75;5073440;28;20234;-82
2023/06/18 08:06:50;;;;;;;8.00;6.90;;;;;;;24.59;45.48;97827.28;5073518;28;20200;-82
2023/06/18 08:09:17;;;;;;;7.40;6.70;;;;;;;24.71;44.13;97820.25;5073034;28;20586;-84
2023/06/18 08:11:44;;;;;;;7.40;6.70;;;;;;;24.85;44.22;97821.97;5073726;28;20210;-89
2023/06/18 08:14:11;;;;;;;9.30;7.10;;;;;;;24.97;43.46;97806.81;5073613;28;20229;-86
2023/06/18 08:16:39;;;;;;;7.93;6.93;;;;;;;25.04;42.93;97804.97;5073568;28;20739;-88
2023/06/18 08:19:05;;;;;;;7.78;6.97;;;;;;;25.17;42.93;97807.69;5072989;28;20592;-90
2023/06/18 08:21:32;;;;;;;7.85;7.03;;;;;;;25.31;43.71;97819.41;5073884;28;20658;-82
2023/06/18 08:24:00;;;;;;;7.10;6.50;;;;;;;25.40;43.93;97810.91;5073405;28;20228;-89
2023/06/18 08:26:26;;;;;;;7.57;6.78;;;;;;;25.55;43.92;97821.53;5073628;28;20587;-84
2023/06/18 08:28:53;;;;;;;7.35;6.65;;;;;;;25.57;40.90;97792.38;5072888;28;20294;-80
2023/06/18 08:31:20;;;;;;;7.13;6.53;;;;;;;25.65;41.00;97786.75;5072572;28;20233;-85
2023/06/18 08:33:47;;;;;;;7.38;6.75;;;;;;;25.72;40.46;97790.31;5072543;28;20304;-78
2023/06/18 08:36:13;;;;;;;7.68;6.97;;;;;;;25.75;40.78;97785.31;5072900;28;20211;-81
2023/06/18 08:38:40;;;;;;;7.47;6.68;;;;;;;25.78;40.19;97776.75;5072670;28;20254;-81
2023/06/18 08:41:09;;;;;;;7.45;6.75;;;;;;;25.97;42.13;97803.00;5072527;28;20207;-81
2023/06/18 08:43:37;;;;;;;7.03;6.43;;;;;;;26.19;42.62;97801.72;5073029;28;20210;-82
2023/06/18 08:46:10;;;;;;;7.28;6.57;;;;;;;26.30;39.50;97782.13;5072468;28;20573;-82
2023/06/18 08:48:43;;;;;;;8.77;6.95;;;;;;;26.39;41.21;97797.09;5072430;28;20211;-82
2023/06/18 08:51:11;;;;;;;7.13;6.43;;;;;;;26.48;41.11;97792.28;5072342;28;20261;-82
2023/06/18 08:53:44;;;;;;;7.78;6.72;;;;;;;26.71;42.19;97807.00;5072226;28;20207;-82
2023/06/18 08:56:15;;;;;;;7.43;6.70;;;;;;;26.83;39.42;97771.94;5072460;28;20196;-81
2023/06/18 08:58:50;;;;;;;7.32;6.20;;;;;;;26.90;39.86;97779.00;5069874;28;20237;-82
2023/06/18 09:01:17;;;;;;;7.85;6.43;;;;;;;26.97;40.56;97796.06;5069055;28;20203;-81
2023/06/18 09:03:45;;;;;;;8.18;7.38;;;;;;;27.10;39.97;97787.84;5069400;28;20213;-81
2023/06/18 09:06:12;;;;;;;7.13;6.43;;;;;;;27.08;39.08;97779.09;5069843;28;20207;-82
2023/06/18 09:08:40;;;;;;;7.13;6.43;;;;;;;27.15;40.63;97788.03;5071955;28;20203;-82
2023/06/18 09:11:07;;;;;;;7.32;6.63;;;;;;;27.20;40.10;97782.78;5071639;28;20214;-81
2023/06/18 09:13:40;;;;;;;7.18;6.47;;;;;;;27.22;38.19;97760.88;5071868;28;20211;-82
2023/06/18 09:16:07;;;;;;;7.10;6.50;;;;;;;27.42;38.84;97775.97;5071879;28;20207;-82
2023/06/18 09:18:34;;;;;;;7.10;6.40;;;;;;;27.65;36.99;97751.75;5071603;28;20231;-82
2023/06/18 09:21:03;;;;;;;7.22;6.40;;;;;;;27.73;37.18;97759.63;5071487;28;20677;-82
2023/06/18 09:23:29;;;;;;;6.80;6.10;;;;;;;27.81;36.67;97752.06;5071802;28;20208;-82
2023/06/18 09:25:57;;;;;;;6.70;6.15;;;;;;;27.90;35.10;97744.44;5071559;28;20232;-82
2023/06/18 09:28:25;;;;;;;8.23;5.90;;;;;;;27.99;34.64;97732.22;5071746;28;20578;-82
2023/06/18 09:30:57;;;;;;;6.70;5.93;;;;;;;28.06;35.99;97743.88;5072674;28;20725;-82
2023/06/18 09:33:28;;;;;;;6.85;6.25;;;;;;;28.10;36.33;97740.47;5071557;28;20211;-83
2023/06/18 09:36:00;;;;;;;6.75;6.07;;;;;;;28.19;35.07;97732.88;5071470;28;20231;-82
2023/06/18 09:38:33;;;;;;;6.97;6.38;;;;;;;28.28;34.02;97720.63;5071055;28;20249;-82
2023/06/18 09:40:59;;;;;;;6.95;5.82;;;;;;;28.23;33.64;97712.31;5071419;28;20211;-82
2023/06/18 09:43:34;;;;;;;6.47;5.88;;;;;;;28.38;33.56;97710.09;5071461;28;20302;-82
2023/06/18 09:46:04;;;;;;;7.05;6.38;;;;;;;28.27;32.87;97703.50;5071224;28;20384;-82
2023/06/18 09:48:31;;;;;;;6.45;5.85;;;;;;;28.33;33.23;97712.63;5071419;28;20210;-82
2023/06/18 09:50:58;;;;;;;7.13;6.43;;;;;;;28.41;32.17;97704.19;5070945;28;20214;-82
2023/06/18 09:53:24;;;;;;;6.43;5.82;;;;;;;28.46;32.56;97716.03;5071512;28;20298;-82
2023/06/18 09:55:51;;;;;;;6.80;6.10;;;;;;;28.41;32.00;97705.03;5071272;28;20710;-81
2023/06/18 09:58:17;;;;;;;6.70;6.10;;;;;;;28.39;33.64;97717.19;5071216;28;20254;-81
2023/06/18 10:01:03;;;;;;;6.65;6.05;;;;;;;28.47;34.34;97722.28;5071256;28;20215;-82
2023/06/18 10:03:30;;;;;;;6.70;6.20;;;;;;;28.57;33.17;97717.16;5071123;28;20203;-81
2023/06/18 10:06:03;;;;;;;6.68;6.07;;;;;;;28.65;32.17;97704.06;5071223;28;20223;-81
2023/06/18 10:08:31;;;;;;;6.38;5.78;;;;;;;28.61;32.73;97704.78;5071274;28;20208;-81
2023/06/18 10:10:57;;;;;;;6.43;5.82;;;;;;;28.69;31.25;97690.84;5070774;28;20214;-81
2023/06/18 10:13:25;;;;;;;6.55;5.95;;;;;;;28.72;32.80;97710.25;5070951;28;20219;-81
2023/06/18 10:15:52;;;;;;;6.90;6.20;;;;;;;28.83;31.32;97701.31;5070810;28;20227;-81
2023/06/18 10:18:23;;;;;;;6.22;5.63;;;;;;;28.70;30.02;97677.03;5071176;28;20231;-81
2023/06/18 10:20:52;;;;;;;6.70;6.10;;;;;;;28.71;31.95;97695.00;5070782;28;20215;-81
2023/06/18 10:23:21;;;;;;;6.85;6.25;;;;;;;28.85;32.63;97698.38;5070894;28;20207;-81
2023/06/18 10:25:48;;;;;;;6.82;6.15;;;;;;;28.97;30.34;97682.94;5070984;28;20627;-81
2023/06/18 10:28:15;;;;;;;6.60;6.05;;;;;;;28.75;30.50;97677.16;5070895;28;20214;-81
2023/06/18 10:30:41;;;;;;;6.05;5.43;;;;;;;28.87;31.31;97688.06;5070511;28;20210;-82
2023/06/18 10:33:08;;;;;;;8.70;5.90;;;;;;;28.72;30.67;97682.22;5070769;28;20211;-82
2023/06/18 10:35:36;;;;;;;6.68;5.70;;;;;;;28.71;31.23;97694.16;5070765;28;20234;-82
2023/06/18 10:38:03;;;;;;;6.63;6.03;;;;;;;28.74;32.04;97691.00;5070873;28;20263;-82
2023/06/18 10:40:30;;;;;;;6.22;5.68;;;;;;;28.90;32.77;97703.94;5070563;28;20207;-82
2023/06/18 10:43:04;;;;;;;6.78;6.05;;;;;;;29.06;32.51;97703.31;5070711;28;20207;-82
2023/06/18 10:45:31;;;;;;;6.28;5.78;;;;;;;29.09;30.54;97681.09;5070713;28;20234;-82
2023/06/18 10:48:16;;;;;;;6.60;5.88;;;;;;;29.17;30.77;97678.81;5070726;28;20207;-82
2023/06/18 10:51:12;;;;;;;5.82;5.35;;;;;;;29.26;31.17;97676.59;5072571;28;20258;-82
2023/06/18 10:53:39;;;;;;;6.53;5.75;;;;;;;29.35;31.69;97684.19;5074511;28;20207;-82
2023/06/18 10:56:05;;;;;;;5.80;5.30;;;;;;;29.49;31.51;97682.09;5074672;28;20203;-82
2023/06/18 10:58:33;;;;;;;6.38;5.78;;;;;;;29.59;31.55;97676.91;5074552;28;20318;-82
2023/06/18 11:01:00;;;;;;;6.53;5.85;;;;;;;29.61;30.28;97663.88;5074123;28;20307;-82
2023/06/18 11:03:34;;;;;;;6.65;6.05;;;;;;;29.66;31.13;97672.19;5074408;28;20203;-81
2023/06/18 11:06:04;;;;;;;6.55;5.95;;;;;;;29.66;30.70;97672.19;5074250;28;20776;-82
2023/06/18 11:08:31;;;;;;;6.13;5.53;;;;;;;29.71;28.99;97645.88;5074572;28;20199;-82
2023/06/18 11:11:03;;;;;;;6.18;5.60;;;;;;;29.52;28.72;97638.06;5074195;28;20211;-82
2023/06/18 11:13:31;;;;;;;7.68;5.80;;;;;;;29.62;31.42;97670.97;5074522;28;20390;-82
2023/06/18 11:16:02;;;;;;;6.15;5.65;;;;;;;29.76;30.42;97656.03;5074228;28;20223;-82
2023/06/18 11:18:30;;;;;;;6.55;5.80;;;;;;;29.81;30.51;97658.88;5074832;28;20568;-82
2023/06/18 11:20:58;;;;;;;6.82;6.10;;;;;;;29.82;30.09;97645.03;5073997;28;20222;-82
2023/06/18 11:23:27;;;;;;;6.00;5.38;;;;;;;29.90;29.48;97646.56;5074230;28;20215;-82
2023/06/18 11:25:55;;;;;;;6.43;5.72;;;;;;;29.96;29.84;97640.16;5074073;28;20729;-82
2023/06/18 11:28:24;;;;;;;5.97;5.47;;;;;;;29.94;30.41;97654.03;5074236;28;20704;-82
2023/06/18 11:30:52;;;;;;;6.05;5.55;;;;;;;30.01;28.94;97629.38;5073694;28;20242;-82
2023/06/18 11:33:23;;;;;;;6.50;5.90;;;;;;;29.99;27.67;97609.69;5074242;28;20203;-82
2023/06/18 11:35:49;;;;;;;6.13;5.53;;;;;;;29.81;27.58;97598.94;5074109;28;20269;-82
2023/06/18 11:38:17;;;;;;;5.68;5.18;;;;;;;29.75;28.55;97616.25;5074446;28;20230;-82